sensor_id;sensor_type;location;lat;lon;timestamp;P1;durP1;ratioP1;P2;durP2;ratioP2
29570;SDS011;16814;52.118;11.436;2022-09-09T00:01:05;10.25;;;3.10;;
29570;SDS011;16814;52.118;11.436;2022-09-09T00:03:52;8.18;;;3.13;;
29570;SDS011;16814;52.118;11.436;2022-09-09T00:06:30;7.15;;;3.05;;
29570;SDS011;16814;52.118;11.436;2022-09-09T00:11:42;11.98;;;4.38;;
29570;SDS011;16814;52.118;11.436;2022-09-09T00:14:13;7.10;;;4.30;;
29570;SDS011;16814;52.118;11.436;2022-09-09T00:16:59;7.03;;;4.65;;
29570;SDS011;16814;52.118;11.436;2022-09-09T00:19:44;8.07;;;4.88;;
29570;SDS011;16814;52.118;11.436;2022-09-09T00:22:25;10.30;;;5.67;;
29570;SDS011;16814;52.118;11.436;2022-09-09T00:24:55;9.55;;;5.40;;
29570;SDS011;16814;52.118;11.436;2022-09-09T00:27:35;8.07;;;5.40;;
29570;SDS011;16814;52.118;11.436;2022-09-09T00:30:13;9.80;;;5.50;;
29570;SDS011;16814;52.118;11.436;2022-09-09T00:32:54;7.85;;;5.93;;
29570;SDS011;16814;52.118;11.436;2022-09-09T00:35:25;9.05;;;5.50;;
29570;SDS011;16814;52.118;11.436;2022-09-09T00:38:08;7.88;;;5.57;;
29570;SDS011;16814;52.118;11.436;2022-09-09T00:40:41;8.25;;;5.63;;
29570;SDS011;16814;52.118;11.436;2022-09-09T00:43:21;12.10;;;5.80;;
29570;SDS011;16814;52.118;11.436;2022-09-09T00:46:00;10.73;;;5.13;;
29570;SDS011;16814;52.118;11.436;2022-09-09T00:48:44;7.70;;;4.90;;
29570;SDS011;16814;52.118;11.436;2022-09-09T00:51:17;7.72;;;4.95;;
29570;SDS011;16814;52.118;11.436;2022-09-09T00:59:45;6.63;;;4.03;;
29570;SDS011;16814;52.118;11.436;2022-09-09T01:02:26;6.35;;;3.78;;
29570;SDS011;16814;52.118;11.436;2022-09-09T01:05:07;6.23;;;3.60;;
29570;SDS011;16814;52.118;11.436;2022-09-09T01:07:51;4.30;;;3.10;;
29570;SDS011;16814;52.118;11.436;2022-09-09T01:10:29;4.17;;;2.80;;
29570;SDS011;16814;52.118;11.436;2022-09-09T01:13:22;7.40;;;2.90;;
29570;SDS011;16814;52.118;11.436;2022-09-09T01:15:51;3.88;;;2.42;;
29570;SDS011;16814;52.118;11.436;2022-09-09T01:18:19;5.72;;;2.67;;
29570;SDS011;16814;52.118;11.436;2022-09-09T01:20:51;6.53;;;2.75;;
29570;SDS011;16814;52.118;11.436;2022-09-09T01:23:48;4.87;;;2.80;;
29570;SDS011;16814;52.118;11.436;2022-09-09T01:26:42;4.85;;;2.70;;
29570;SDS011;16814;52.118;11.436;2022-09-09T01:29:12;5.32;;;2.47;;
29570;SDS011;16814;52.118;11.436;2022-09-09T01:31:51;8.48;;;2.80;;
29570;SDS011;16814;52.118;11.436;2022-09-09T01:34:25;6.90;;;3.07;;
29570;SDS011;16814;52.118;11.436;2022-09-09T01:39:35;9.00;;;2.90;;
29570;SDS011;16814;52.118;11.436;2022-09-09T01:42:02;5.73;;;2.80;;
29570;SDS011;16814;52.118;11.436;2022-09-09T01:44:29;6.10;;;2.60;;
29570;SDS011;16814;52.118;11.436;2022-09-09T01:46:56;4.50;;;2.30;;
29570;SDS011;16814;52.118;11.436;2022-09-09T01:49:21;6.07;;;2.40;;
29570;SDS011;16814;52.118;11.436;2022-09-09T01:51:52;7.03;;;2.17;;
29570;SDS011;16814;52.118;11.436;2022-09-09T01:54:19;4.57;;;1.90;;
29570;SDS011;16814;52.118;11.436;2022-09-09T02:02:13;5.17;;;1.77;;
29570;SDS011;16814;52.118;11.436;2022-09-09T02:04:49;4.35;;;1.60;;
29570;SDS011;16814;52.118;11.436;2022-09-09T02:07:21;4.40;;;1.43;;
29570;SDS011;16814;52.118;11.436;2022-09-09T02:10:12;3.38;;;1.70;;
29570;SDS011;16814;52.118;11.436;2022-09-09T02:12:47;4.20;;;1.80;;
29570;SDS011;16814;52.118;11.436;2022-09-09T02:15:23;7.97;;;1.70;;
29570;SDS011;16814;52.118;11.436;2022-09-09T02:17:56;2.08;;;1.33;;
29570;SDS011;16814;52.118;11.436;2022-09-09T02:20:23;5.23;;;1.77;;
29570;SDS011;16814;52.118;11.436;2022-09-09T02:22:52;6.25;;;1.90;;
29570;SDS011;16814;52.118;11.436;2022-09-09T02:25:19;5.25;;;1.95;;
29570;SDS011;16814;52.118;11.436;2022-09-09T02:27:47;5.82;;;1.80;;
29570;SDS011;16814;52.118;11.436;2022-09-09T02:30:15;4.27;;;1.80;;
29570;SDS011;16814;52.118;11.436;2022-09-09T02:32:42;3.47;;;2.03;;
29570;SDS011;16814;52.118;11.436;2022-09-09T02:35:11;7.63;;;2.22;;
29570;SDS011;16814;52.118;11.436;2022-09-09T02:37:39;6.20;;;2.15;;
29570;SDS011;16814;52.118;11.436;2022-09-09T02:40:08;2.83;;;1.70;;
29570;SDS011;16814;52.118;11.436;2022-09-09T02:42:39;6.32;;;1.98;;
29570;SDS011;16814;52.118;11.436;2022-09-09T02:45:09;8.52;;;2.10;;
29570;SDS011;16814;52.118;11.436;2022-09-09T02:47:46;12.18;;;2.00;;
29570;SDS011;16814;52.118;11.436;2022-09-09T02:50:41;4.13;;;1.80;;
29570;SDS011;16814;52.118;11.436;2022-09-09T02:53:26;6.28;;;2.17;;
29570;SDS011;16814;52.118;11.436;2022-09-09T02:56:00;5.80;;;2.00;;
29570;SDS011;16814;52.118;11.436;2022-09-09T02:58:31;10.52;;;2.10;;
29570;SDS011;16814;52.118;11.436;2022-09-09T03:00:57;4.83;;;1.90;;
29570;SDS011;16814;52.118;11.436;2022-09-09T03:03:23;4.93;;;1.80;;
29570;SDS011;16814;52.118;11.436;2022-09-09T03:05:49;5.05;;;2.00;;
29570;SDS011;16814;52.118;11.436;2022-09-09T03:08:15;5.50;;;1.80;;
29570;SDS011;16814;52.118;11.436;2022-09-09T03:10:41;5.03;;;1.77;;
29570;SDS011;16814;52.118;11.436;2022-09-09T03:13:06;5.67;;;2.37;;
29570;SDS011;16814;52.118;11.436;2022-09-09T03:15:32;4.68;;;1.70;;
29570;SDS011;16814;52.118;11.436;2022-09-09T03:17:58;5.90;;;1.70;;
29570;SDS011;16814;52.118;11.436;2022-09-09T03:20:25;4.03;;;1.73;;
29570;SDS011;16814;52.118;11.436;2022-09-09T03:22:52;5.68;;;1.80;;
29570;SDS011;16814;52.118;11.436;2022-09-09T03:25:18;3.88;;;1.50;;
29570;SDS011;16814;52.118;11.436;2022-09-09T03:27:43;2.73;;;1.50;;
29570;SDS011;16814;52.118;11.436;2022-09-09T03:30:09;5.13;;;1.60;;
29570;SDS011;16814;52.118;11.436;2022-09-09T03:32:35;4.10;;;1.58;;
29570;SDS011;16814;52.118;11.436;2022-09-09T03:35:01;4.47;;;1.38;;
29570;SDS011;16814;52.118;11.436;2022-09-09T03:37:27;6.20;;;1.60;;
29570;SDS011;16814;52.118;11.436;2022-09-09T03:39:52;5.30;;;1.60;;
29570;SDS011;16814;52.118;11.436;2022-09-09T03:42:19;4.78;;;1.48;;
29570;SDS011;16814;52.118;11.436;2022-09-09T03:44:45;6.80;;;1.70;;
29570;SDS011;16814;52.118;11.436;2022-09-09T03:47:14;8.30;;;1.60;;
29570;SDS011;16814;52.118;11.436;2022-09-09T03:49:43;8.73;;;1.43;;
29570;SDS011;16814;52.118;11.436;2022-09-09T03:52:09;6.15;;;1.80;;
29570;SDS011;16814;52.118;11.436;2022-09-09T03:54:35;5.75;;;1.50;;
29570;SDS011;16814;52.118;11.436;2022-09-09T03:57:01;5.95;;;1.50;;
29570;SDS011;16814;52.118;11.436;2022-09-09T03:59:27;5.70;;;1.70;;
29570;SDS011;16814;52.118;11.436;2022-09-09T04:01:52;5.72;;;1.80;;
29570;SDS011;16814;52.118;11.436;2022-09-09T04:04:18;8.30;;;1.75;;
29570;SDS011;16814;52.118;11.436;2022-09-09T04:06:45;7.35;;;1.90;;
29570;SDS011;16814;52.118;11.436;2022-09-09T04:09:11;6.13;;;1.70;;
29570;SDS011;16814;52.118;11.436;2022-09-09T04:11:37;3.40;;;1.63;;
29570;SDS011;16814;52.118;11.436;2022-09-09T04:14:03;6.15;;;1.83;;
29570;SDS011;16814;52.118;11.436;2022-09-09T04:16:30;6.03;;;1.60;;
29570;SDS011;16814;52.118;11.436;2022-09-09T04:18:57;4.97;;;1.92;;
29570;SDS011;16814;52.118;11.436;2022-09-09T04:21:23;4.50;;;1.83;;
29570;SDS011;16814;52.118;11.436;2022-09-09T04:23:48;8.53;;;2.00;;
29570;SDS011;16814;52.118;11.436;2022-09-09T04:26:14;8.73;;;2.17;;
29570;SDS011;16814;52.118;11.436;2022-09-09T04:28:40;12.63;;;2.00;;
29570;SDS011;16814;52.118;11.436;2022-09-09T04:31:06;9.53;;;1.87;;
29570;SDS011;16814;52.118;11.436;2022-09-09T04:33:33;8.65;;;1.70;;
29570;SDS011;16814;52.118;11.436;2022-09-09T04:35:59;8.77;;;2.10;;
29570;SDS011;16814;52.118;11.436;2022-09-09T04:38:25;8.67;;;1.90;;
29570;SDS011;16814;52.118;11.436;2022-09-09T04:40:51;12.40;;;2.00;;
29570;SDS011;16814;52.118;11.436;2022-09-09T04:43:18;8.15;;;1.90;;
29570;SDS011;16814;52.118;11.436;2022-09-09T04:45:48;7.47;;;2.00;;
29570;SDS011;16814;52.118;11.436;2022-09-09T04:48:16;6.15;;;1.90;;
29570;SDS011;16814;52.118;11.436;2022-09-09T04:50:42;8.05;;;1.92;;
29570;SDS011;16814;52.118;11.436;2022-09-09T04:53:07;9.83;;;1.87;;
29570;SDS011;16814;52.118;11.436;2022-09-09T04:55:33;6.35;;;2.25;;
29570;SDS011;16814;52.118;11.436;2022-09-09T04:58:05;10.48;;;2.63;;
29570;SDS011;16814;52.118;11.436;2022-09-09T05:00:33;6.57;;;2.60;;
29570;SDS011;16814;52.118;11.436;2022-09-09T05:03:02;5.88;;;2.20;;
29570;SDS011;16814;52.118;11.436;2022-09-09T05:05:29;4.00;;;1.90;;
29570;SDS011;16814;52.118;11.436;2022-09-09T05:08:00;6.82;;;2.15;;
29570;SDS011;16814;52.118;11.436;2022-09-09T05:10:29;6.53;;;1.92;;
29570;SDS011;16814;52.118;11.436;2022-09-09T05:12:55;8.43;;;1.85;;
29570;SDS011;16814;52.118;11.436;2022-09-09T05:15:21;7.67;;;1.93;;
29570;SDS011;16814;52.118;11.436;2022-09-09T05:17:46;3.77;;;1.77;;
29570;SDS011;16814;52.118;11.436;2022-09-09T05:20:12;5.57;;;2.10;;
29570;SDS011;16814;52.118;11.436;2022-09-09T05:22:37;7.30;;;2.20;;
29570;SDS011;16814;52.118;11.436;2022-09-09T05:25:03;8.57;;;2.23;;
29570;SDS011;16814;52.118;11.436;2022-09-09T05:27:29;12.25;;;2.10;;
29570;SDS011;16814;52.118;11.436;2022-09-09T05:29:56;7.95;;;2.00;;
29570;SDS011;16814;52.118;11.436;2022-09-09T05:32:23;10.23;;;2.00;;
29570;SDS011;16814;52.118;11.436;2022-09-09T05:34:49;9.30;;;2.08;;
29570;SDS011;16814;52.118;11.436;2022-09-09T05:37:15;7.80;;;1.83;;
29570;SDS011;16814;52.118;11.436;2022-09-09T05:39:41;10.20;;;2.00;;
29570;SDS011;16814;52.118;11.436;2022-09-09T05:42:07;9.43;;;2.10;;
29570;SDS011;16814;52.118;11.436;2022-09-09T05:44:32;7.47;;;2.00;;
29570;SDS011;16814;52.118;11.436;2022-09-09T05:46:58;8.73;;;2.07;;
29570;SDS011;16814;52.118;11.436;2022-09-09T05:49:23;8.15;;;1.83;;
29570;SDS011;16814;52.118;11.436;2022-09-09T05:51:49;8.50;;;2.40;;
29570;SDS011;16814;52.118;11.436;2022-09-09T05:54:15;6.82;;;2.10;;
29570;SDS011;16814;52.118;11.436;2022-09-09T05:56:41;6.73;;;2.13;;
29570;SDS011;16814;52.118;11.436;2022-09-09T05:59:07;6.13;;;2.13;;
29570;SDS011;16814;52.118;11.436;2022-09-09T06:01:34;9.20;;;2.25;;
29570;SDS011;16814;52.118;11.436;2022-09-09T06:04:05;6.90;;;2.17;;
29570;SDS011;16814;52.118;11.436;2022-09-09T06:06:32;9.25;;;2.05;;
29570;SDS011;16814;52.118;11.436;2022-09-09T06:09:02;8.68;;;1.92;;
29570;SDS011;16814;52.118;11.436;2022-09-09T06:11:31;8.80;;;2.20;;
29570;SDS011;16814;52.118;11.436;2022-09-09T06:13:58;11.63;;;2.00;;
29570;SDS011;16814;52.118;11.436;2022-09-09T06:16:25;6.88;;;2.05;;
29570;SDS011;16814;52.118;11.436;2022-09-09T06:18:52;7.95;;;1.90;;
29570;SDS011;16814;52.118;11.436;2022-09-09T06:21:23;9.95;;;2.28;;
29570;SDS011;16814;52.118;11.436;2022-09-09T06:23:50;4.90;;;2.10;;
29570;SDS011;16814;52.118;11.436;2022-09-09T06:26:17;5.93;;;2.10;;
29570;SDS011;16814;52.118;11.436;2022-09-09T06:28:51;12.18;;;2.05;;
29570;SDS011;16814;52.118;11.436;2022-09-09T06:31:19;8.07;;;2.30;;
29570;SDS011;16814;52.118;11.436;2022-09-09T06:33:46;7.40;;;2.17;;
29570;SDS011;16814;52.118;11.436;2022-09-09T06:36:15;8.85;;;2.25;;
29570;SDS011;16814;52.118;11.436;2022-09-09T06:38:42;6.83;;;1.80;;
29570;SDS011;16814;52.118;11.436;2022-09-09T06:41:09;8.48;;;2.03;;
29570;SDS011;16814;52.118;11.436;2022-09-09T06:43:35;7.40;;;1.90;;
29570;SDS011;16814;52.118;11.436;2022-09-09T06:46:03;8.57;;;2.10;;
29570;SDS011;16814;52.118;11.436;2022-09-09T06:48:30;7.35;;;2.30;;
29570;SDS011;16814;52.118;11.436;2022-09-09T06:51:39;9.88;;;2.33;;
29570;SDS011;16814;52.118;11.436;2022-09-09T06:53:47;12.23;;;2.25;;
29570;SDS011;16814;52.118;11.436;2022-09-09T06:56:20;9.05;;;2.03;;
29570;SDS011;16814;52.118;11.436;2022-09-09T06:58:54;7.97;;;2.03;;
29570;SDS011;16814;52.118;11.436;2022-09-09T07:01:25;5.60;;;1.50;;
29570;SDS011;16814;52.118;11.436;2022-09-09T07:03:53;8.93;;;1.67;;
29570;SDS011;16814;52.118;11.436;2022-09-09T07:06:24;5.87;;;1.70;;
29570;SDS011;16814;52.118;11.436;2022-09-09T07:08:52;7.78;;;1.60;;
29570;SDS011;16814;52.118;11.436;2022-09-09T07:11:23;5.93;;;1.70;;
29570;SDS011;16814;52.118;11.436;2022-09-09T07:13:53;4.40;;;1.77;;
29570;SDS011;16814;52.118;11.436;2022-09-09T07:16:20;10.40;;;2.13;;
29570;SDS011;16814;52.118;11.436;2022-09-09T07:18:50;8.20;;;1.90;;
29570;SDS011;16814;52.118;11.436;2022-09-09T07:21:16;6.93;;;1.92;;
29570;SDS011;16814;52.118;11.436;2022-09-09T07:23:42;5.97;;;1.70;;
29570;SDS011;16814;52.118;11.436;2022-09-09T07:26:15;9.77;;;2.00;;
29570;SDS011;16814;52.118;11.436;2022-09-09T07:28:44;12.68;;;2.45;;
29570;SDS011;16814;52.118;11.436;2022-09-09T07:31:13;7.80;;;1.63;;
29570;SDS011;16814;52.118;11.436;2022-09-09T07:33:41;5.33;;;1.67;;
29570;SDS011;16814;52.118;11.436;2022-09-09T07:36:08;8.20;;;1.67;;
29570;SDS011;16814;52.118;11.436;2022-09-09T07:38:38;12.45;;;1.80;;
29570;SDS011;16814;52.118;11.436;2022-09-09T07:41:05;7.05;;;1.58;;
29570;SDS011;16814;52.118;11.436;2022-09-09T07:43:36;11.23;;;1.90;;
29570;SDS011;16814;52.118;11.436;2022-09-09T07:46:06;8.50;;;2.13;;
29570;SDS011;16814;52.118;11.436;2022-09-09T07:48:32;10.00;;;2.20;;
29570;SDS011;16814;52.118;11.436;2022-09-09T07:51:05;10.85;;;2.33;;
29570;SDS011;16814;52.118;11.436;2022-09-09T07:53:33;10.40;;;2.10;;
29570;SDS011;16814;52.118;11.436;2022-09-09T07:56:09;6.57;;;1.77;;
29570;SDS011;16814;52.118;11.436;2022-09-09T07:58:36;8.02;;;1.88;;
29570;SDS011;16814;52.118;11.436;2022-09-09T08:01:10;6.35;;;1.35;;
29570;SDS011;16814;52.118;11.436;2022-09-09T08:03:42;8.30;;;1.63;;
29570;SDS011;16814;52.118;11.436;2022-09-09T08:06:09;6.90;;;1.55;;
29570;SDS011;16814;52.118;11.436;2022-09-09T08:08:36;8.23;;;1.75;;
29570;SDS011;16814;52.118;11.436;2022-09-09T08:11:07;5.65;;;1.60;;
29570;SDS011;16814;52.118;11.436;2022-09-09T08:13:41;7.28;;;1.58;;
29570;SDS011;16814;52.118;11.436;2022-09-09T08:16:09;8.63;;;1.45;;
29570;SDS011;16814;52.118;11.436;2022-09-09T08:18:36;6.38;;;1.55;;
29570;SDS011;16814;52.118;11.436;2022-09-09T08:23:39;7.15;;;1.40;;
29570;SDS011;16814;52.118;11.436;2022-09-09T08:26:10;4.50;;;1.27;;
29570;SDS011;16814;52.118;11.436;2022-09-09T08:28:38;6.88;;;1.70;;
29570;SDS011;16814;52.118;11.436;2022-09-09T08:31:14;8.00;;;1.48;;
29570;SDS011;16814;52.118;11.436;2022-09-09T08:33:42;7.00;;;1.45;;
29570;SDS011;16814;52.118;11.436;2022-09-09T08:36:11;5.18;;;1.25;;
29570;SDS011;16814;52.118;11.436;2022-09-09T08:38:48;6.03;;;1.35;;
29570;SDS011;16814;52.118;11.436;2022-09-09T08:49:38;4.22;;;1.50;;
29570;SDS011;16814;52.118;11.436;2022-09-09T08:52:25;7.85;;;1.80;;
29570;SDS011;16814;52.118;11.436;2022-09-09T08:55:06;4.70;;;1.40;;
29570;SDS011;16814;52.118;11.436;2022-09-09T08:57:51;8.90;;;1.50;;
29570;SDS011;16814;52.118;11.436;2022-09-09T09:00:19;8.48;;;1.45;;
29570;SDS011;16814;52.118;11.436;2022-09-09T09:02:48;6.68;;;1.42;;
29570;SDS011;16814;52.118;11.436;2022-09-09T09:05:19;6.07;;;1.40;;
29570;SDS011;16814;52.118;11.436;2022-09-09T09:08:20;5.70;;;1.30;;
29570;SDS011;16814;52.118;11.436;2022-09-09T09:10:57;7.57;;;1.33;;
29570;SDS011;16814;52.118;11.436;2022-09-09T09:13:38;12.43;;;1.50;;
29570;SDS011;16814;52.118;11.436;2022-09-09T09:16:38;3.97;;;1.13;;
29570;SDS011;16814;52.118;11.436;2022-09-09T09:19:14;7.23;;;1.60;;
29570;SDS011;16814;52.118;11.436;2022-09-09T09:21:42;8.43;;;1.50;;
29570;SDS011;16814;52.118;11.436;2022-09-09T09:27:21;5.60;;;1.42;;
29570;SDS011;16814;52.118;11.436;2022-09-09T09:29:58;16.40;;;1.92;;
29570;SDS011;16814;52.118;11.436;2022-09-09T09:32:25;7.68;;;1.63;;
29570;SDS011;16814;52.118;11.436;2022-09-09T09:34:56;5.78;;;1.20;;
29570;SDS011;16814;52.118;11.436;2022-09-09T09:37:26;7.47;;;1.35;;
29570;SDS011;16814;52.118;11.436;2022-09-09T09:40:07;4.95;;;1.25;;
29570;SDS011;16814;52.118;11.436;2022-09-09T09:42:37;8.60;;;1.40;;
29570;SDS011;16814;52.118;11.436;2022-09-09T09:50:24;11.48;;;1.58;;
29570;SDS011;16814;52.118;11.436;2022-09-09T09:52:57;6.60;;;1.50;;
29570;SDS011;16814;52.118;11.436;2022-09-09T09:55:25;7.03;;;1.33;;
29570;SDS011;16814;52.118;11.436;2022-09-09T09:57:56;12.07;;;1.40;;
29570;SDS011;16814;52.118;11.436;2022-09-09T10:00:26;3.95;;;1.13;;
29570;SDS011;16814;52.118;11.436;2022-09-09T10:02:52;11.52;;;1.70;;
29570;SDS011;16814;52.118;11.436;2022-09-09T10:05:19;7.27;;;1.23;;
29570;SDS011;16814;52.118;11.436;2022-09-09T10:07:47;9.53;;;1.90;;
29570;SDS011;16814;52.118;11.436;2022-09-09T10:10:31;6.88;;;1.50;;
29570;SDS011;16814;52.118;11.436;2022-09-09T10:13:20;7.37;;;1.40;;
29570;SDS011;16814;52.118;11.436;2022-09-09T10:16:03;7.57;;;1.30;;
29570;SDS011;16814;52.118;11.436;2022-09-09T10:24:42;13.55;;;1.63;;
29570;SDS011;16814;52.118;11.436;2022-09-09T10:27:31;7.78;;;1.10;;
29570;SDS011;16814;52.118;11.436;2022-09-09T10:30:18;8.40;;;1.60;;
29570;SDS011;16814;52.118;11.436;2022-09-09T10:35:51;11.07;;;1.50;;
29570;SDS011;16814;52.118;11.436;2022-09-09T10:38:40;8.23;;;1.60;;
29570;SDS011;16814;52.118;11.436;2022-09-09T10:41:26;10.80;;;1.40;;
29570;SDS011;16814;52.118;11.436;2022-09-09T10:47:14;8.73;;;1.30;;
29570;SDS011;16814;52.118;11.436;2022-09-09T10:50:06;6.35;;;1.15;;
29570;SDS011;16814;52.118;11.436;2022-09-09T10:55:48;5.80;;;1.20;;
29570;SDS011;16814;52.118;11.436;2022-09-09T10:58:23;8.20;;;1.35;;
29570;SDS011;16814;52.118;11.436;2022-09-09T11:01:00;8.07;;;1.08;;
29570;SDS011;16814;52.118;11.436;2022-09-09T11:03:34;5.57;;;1.10;;
29570;SDS011;16814;52.118;11.436;2022-09-09T11:06:04;5.80;;;1.60;;
29570;SDS011;16814;52.118;11.436;2022-09-09T11:08:35;9.82;;;1.48;;
29570;SDS011;16814;52.118;11.436;2022-09-09T11:11:04;9.02;;;1.75;;
29570;SDS011;16814;52.118;11.436;2022-09-09T11:16:22;5.33;;;1.00;;
29570;SDS011;16814;52.118;11.436;2022-09-09T11:19:17;7.97;;;1.40;;
29570;SDS011;16814;52.118;11.436;2022-09-09T11:21:47;5.53;;;1.00;;
29570;SDS011;16814;52.118;11.436;2022-09-09T11:24:24;3.85;;;0.90;;
29570;SDS011;16814;52.118;11.436;2022-09-09T11:30:01;7.35;;;1.20;;
29570;SDS011;16814;52.118;11.436;2022-09-09T11:35:31;13.23;;;1.90;;
29570;SDS011;16814;52.118;11.436;2022-09-09T11:41:06;8.50;;;1.30;;
29570;SDS011;16814;52.118;11.436;2022-09-09T11:43:44;9.68;;;1.30;;
29570;SDS011;16814;52.118;11.436;2022-09-09T11:46:18;6.05;;;1.10;;
29570;SDS011;16814;52.118;11.436;2022-09-09T11:49:03;13.00;;;1.43;;
29570;SDS011;16814;52.118;11.436;2022-09-09T11:51:31;7.13;;;1.20;;
29570;SDS011;16814;52.118;11.436;2022-09-09T11:54:02;9.65;;;1.80;;
29570;SDS011;16814;52.118;11.436;2022-09-09T11:56:47;28.42;;;2.67;;
29570;SDS011;16814;52.118;11.436;2022-09-09T11:59:20;7.38;;;1.38;;
29570;SDS011;16814;52.118;11.436;2022-09-09T12:01:57;13.07;;;1.45;;
29570;SDS011;16814;52.118;11.436;2022-09-09T12:04:49;8.40;;;1.30;;
29570;SDS011;16814;52.118;11.436;2022-09-09T12:12:25;7.80;;;1.20;;
29570;SDS011;16814;52.118;11.436;2022-09-09T12:22:51;7.22;;;1.25;;
29570;SDS011;16814;52.118;11.436;2022-09-09T12:25:31;5.78;;;1.35;;
29570;SDS011;16814;52.118;11.436;2022-09-09T12:28:18;8.73;;;1.40;;
29570;SDS011;16814;52.118;11.436;2022-09-09T12:33:33;4.70;;;1.03;;
29570;SDS011;16814;52.118;11.436;2022-09-09T12:36:09;10.88;;;1.50;;
29570;SDS011;16814;52.118;11.436;2022-09-09T12:38:40;6.22;;;1.17;;
29570;SDS011;16814;52.118;11.436;2022-09-09T12:41:17;8.75;;;1.30;;
29570;SDS011;16814;52.118;11.436;2022-09-09T12:43:48;5.80;;;1.20;;
29570;SDS011;16814;52.118;11.436;2022-09-09T12:46:23;8.02;;;1.35;;
29570;SDS011;16814;52.118;11.436;2022-09-09T12:48:57;4.85;;;1.05;;
29570;SDS011;16814;52.118;11.436;2022-09-09T12:51:24;8.40;;;1.40;;
29570;SDS011;16814;52.118;11.436;2022-09-09T12:53:54;7.20;;;1.40;;
29570;SDS011;16814;52.118;11.436;2022-09-09T12:56:21;7.22;;;1.38;;
29570;SDS011;16814;52.118;11.436;2022-09-09T12:58:52;5.63;;;1.30;;
29570;SDS011;16814;52.118;11.436;2022-09-09T13:03:55;8.70;;;1.80;;
29570;SDS011;16814;52.118;11.436;2022-09-09T13:06:25;8.27;;;1.25;;
29570;SDS011;16814;52.118;11.436;2022-09-09T13:08:52;14.07;;;1.60;;
29570;SDS011;16814;52.118;11.436;2022-09-09T13:11:21;8.05;;;1.30;;
29570;SDS011;16814;52.118;11.436;2022-09-09T13:13:56;27.55;;;2.13;;
29570;SDS011;16814;52.118;11.436;2022-09-09T13:16:24;19.45;;;2.33;;
29570;SDS011;16814;52.118;11.436;2022-09-09T13:18:56;20.15;;;1.92;;
29570;SDS011;16814;52.118;11.436;2022-09-09T13:21:34;17.73;;;1.90;;
29570;SDS011;16814;52.118;11.436;2022-09-09T13:24:02;19.48;;;2.45;;
29570;SDS011;16814;52.118;11.436;2022-09-09T13:26:31;16.60;;;2.30;;
29570;SDS011;16814;52.118;11.436;2022-09-09T13:29:07;13.17;;;2.63;;
29570;SDS011;16814;52.118;11.436;2022-09-09T13:31:42;27.57;;;2.60;;
29570;SDS011;16814;52.118;11.436;2022-09-09T13:34:25;9.38;;;1.50;;
29570;SDS011;16814;52.118;11.436;2022-09-09T13:36:59;126.13;;;56.92;;
29570;SDS011;16814;52.118;11.436;2022-09-09T13:39:30;6.90;;;1.50;;
29570;SDS011;16814;52.118;11.436;2022-09-09T13:41:59;9.50;;;1.50;;
29570;SDS011;16814;52.118;11.436;2022-09-09T13:44:25;7.47;;;1.58;;
29570;SDS011;16814;52.118;11.436;2022-09-09T13:47:00;8.25;;;1.52;;
29570;SDS011;16814;52.118;11.436;2022-09-09T13:49:28;6.47;;;1.20;;
29570;SDS011;16814;52.118;11.436;2022-09-09T13:52:04;33.25;;;2.00;;
29570;SDS011;16814;52.118;11.436;2022-09-09T13:54:32;172.95;;;6.85;;
29570;SDS011;16814;52.118;11.436;2022-09-09T13:56:58;833.73;;;32.80;;
29570;SDS011;16814;52.118;11.436;2022-09-09T13:59:23;653.30;;;26.90;;
29570;SDS011;16814;52.118;11.436;2022-09-09T14:01:49;354.03;;;14.10;;
29570;SDS011;16814;52.118;11.436;2022-09-09T14:04:17;61.47;;;4.45;;
29570;SDS011;16814;52.118;11.436;2022-09-09T14:06:46;7.70;;;1.40;;
29570;SDS011;16814;52.118;11.436;2022-09-09T14:09:12;6.85;;;1.40;;
29570;SDS011;16814;52.118;11.436;2022-09-09T14:11:39;8.52;;;1.02;;
29570;SDS011;16814;52.118;11.436;2022-09-09T14:14:05;6.93;;;1.20;;
29570;SDS011;16814;52.118;11.436;2022-09-09T14:16:31;78.13;;;3.60;;
29570;SDS011;16814;52.118;11.436;2022-09-09T14:18:57;39.67;;;2.50;;
29570;SDS011;16814;52.118;11.436;2022-09-09T14:21:24;31.87;;;2.27;;
29570;SDS011;16814;52.118;11.436;2022-09-09T14:23:51;7.28;;;1.30;;
29570;SDS011;16814;52.118;11.436;2022-09-09T14:26:17;8.15;;;1.33;;
29570;SDS011;16814;52.118;11.436;2022-09-09T14:28:45;5.65;;;1.00;;
29570;SDS011;16814;52.118;11.436;2022-09-09T14:31:11;4.47;;;1.10;;
29570;SDS011;16814;52.118;11.436;2022-09-09T14:33:38;3.42;;;1.05;;
29570;SDS011;16814;52.118;11.436;2022-09-09T14:36:04;6.13;;;1.10;;
29570;SDS011;16814;52.118;11.436;2022-09-09T14:38:31;5.40;;;1.20;;
29570;SDS011;16814;52.118;11.436;2022-09-09T14:41:04;4.68;;;1.10;;
29570;SDS011;16814;52.118;11.436;2022-09-09T14:43:30;3.22;;;0.95;;
29570;SDS011;16814;52.118;11.436;2022-09-09T14:45:57;9.65;;;1.20;;
29570;SDS011;16814;52.118;11.436;2022-09-09T14:48:30;8.77;;;1.90;;
29570;SDS011;16814;52.118;11.436;2022-09-09T14:50:56;2.43;;;1.00;;
29570;SDS011;16814;52.118;11.436;2022-09-09T14:53:21;5.80;;;1.23;;
29570;SDS011;16814;52.118;11.436;2022-09-09T14:55:47;8.63;;;1.30;;
29570;SDS011;16814;52.118;11.436;2022-09-09T14:58:13;6.15;;;1.60;;
29570;SDS011;16814;52.118;11.436;2022-09-09T15:00:38;5.63;;;1.13;;
29570;SDS011;16814;52.118;11.436;2022-09-09T15:03:04;8.13;;;1.20;;
29570;SDS011;16814;52.118;11.436;2022-09-09T15:05:29;5.20;;;1.20;;
29570;SDS011;16814;52.118;11.436;2022-09-09T15:07:56;8.65;;;1.52;;
29570;SDS011;16814;52.118;11.436;2022-09-09T15:10:23;4.43;;;1.00;;
29570;SDS011;16814;52.118;11.436;2022-09-09T15:12:49;6.63;;;1.00;;
29570;SDS011;16814;52.118;11.436;2022-09-09T15:15:14;7.68;;;1.35;;
29570;SDS011;16814;52.118;11.436;2022-09-09T15:17:40;5.03;;;1.30;;
29570;SDS011;16814;52.118;11.436;2022-09-09T15:20:06;6.50;;;1.20;;
29570;SDS011;16814;52.118;11.436;2022-09-09T15:22:32;3.33;;;0.82;;
29570;SDS011;16814;52.118;11.436;2022-09-09T15:24:58;4.22;;;1.13;;
29570;SDS011;16814;52.118;11.436;2022-09-09T15:27:24;4.53;;;1.40;;
29570;SDS011;16814;52.118;11.436;2022-09-09T15:29:49;5.25;;;1.73;;
29570;SDS011;16814;52.118;11.436;2022-09-09T15:32:16;7.55;;;1.45;;
29570;SDS011;16814;52.118;11.436;2022-09-09T15:34:42;4.32;;;1.25;;
29570;SDS011;16814;52.118;11.436;2022-09-09T15:37:11;3.75;;;0.93;;
29570;SDS011;16814;52.118;11.436;2022-09-09T15:39:40;8.77;;;1.00;;
29570;SDS011;16814;52.118;11.436;2022-09-09T15:42:06;3.00;;;0.77;;
29570;SDS011;16814;52.118;11.436;2022-09-09T15:44:41;4.88;;;1.23;;
29570;SDS011;16814;52.118;11.436;2022-09-09T15:47:07;5.97;;;1.20;;
29570;SDS011;16814;52.118;11.436;2022-09-09T15:49:35;12.23;;;1.27;;
29570;SDS011;16814;52.118;11.436;2022-09-09T15:52:00;6.93;;;1.15;;
29570;SDS011;16814;52.118;11.436;2022-09-09T15:54:31;6.10;;;1.33;;
29570;SDS011;16814;52.118;11.436;2022-09-09T15:56:58;4.15;;;1.20;;
29570;SDS011;16814;52.118;11.436;2022-09-09T15:59:26;10.70;;;1.13;;
29570;SDS011;16814;52.118;11.436;2022-09-09T16:01:52;7.87;;;1.27;;
29570;SDS011;16814;52.118;11.436;2022-09-09T16:04:19;6.67;;;1.10;;
29570;SDS011;16814;52.118;11.436;2022-09-09T16:06:58;22.05;;;1.52;;
29570;SDS011;16814;52.118;11.436;2022-09-09T16:09:26;6.05;;;0.90;;
29570;SDS011;16814;52.118;11.436;2022-09-09T16:11:52;15.15;;;1.05;;
29570;SDS011;16814;52.118;11.436;2022-09-09T16:14:20;2.73;;;0.90;;